Time;durP1;ratioP1;P1;durP2;ratioP2;P2;SDS_P1;SDS_P2;PMS_P1;PMS_P2;Temp;Humidity;BMP_temperature;BMP_pressure;BME280_temperature;BME280_humidity;BME280_pressure;Samples;Min_cycle;Max_cycle;Signal;HPM_P1;HPM_P2
2023/11/29 00:03:46;;;;;;;5.18;4.10;;;;;;;-2.82;100.00;97488.00;15280005;19;20468;-58
2023/11/29 00:09:11;;;;;;;5.13;4.18;;;;;;;-2.97;100.00;97488.09;15276853;19;20014;-58
2023/11/29 00:14:38;;;;;;;4.25;3.83;;;;;;;-3.12;100.00;97478.53;15297575;19;20006;-59
2023/11/29 00:20:03;;;;;;;4.10;3.70;;;;;;;-3.29;100.00;97488.34;15294785;19;20028;-57
2023/11/29 00:25:28;;;;;;;5.53;3.85;;;;;;;-3.44;100.00;97474.38;15300380;19;20460;-57
2023/11/29 00:30:56;;;;;;;4.40;4.00;;;;;;;-3.65;100.00;97471.31;15295550;19;20018;-58
2023/11/29 00:36:21;;;;;;;3.92;3.50;;;;;;;-3.83;100.00;97475.06;15298130;19;20037;-55
2023/11/29 00:41:45;;;;;;;4.45;4.05;;;;;;;-3.98;100.00;97476.88;15271775;19;20014;-58
2023/11/29 00:47:13;;;;;;;4.40;4.00;;;;;;;-4.07;100.00;97465.13;15297395;19;20035;-58
2023/11/29 00:52:38;;;;;;;5.32;4.40;;;;;;;-4.10;100.00;97455.63;15292013;19;20023;-55
2023/11/29 00:58:03;;;;;;;4.72;4.32;;;;;;;-4.15;100.00;97446.34;15296484;19;20488;-58
2023/11/29 01:03:38;;;;;;;4.75;4.35;;;;;;;-4.25;100.00;97449.53;15286051;19;20031;-58
2023/11/29 01:09:06;;;;;;;5.03;4.30;;;;;;;-4.31;100.00;97442.00;15291977;19;20487;-56
2023/11/29 01:14:30;;;;;;;5.28;4.68;;;;;;;-4.35;100.00;97433.44;15295737;19;20096;-59
2023/11/29 01:19:58;;;;;;;5.65;4.88;;;;;;;-4.41;100.00;97431.19;15288529;19;20385;-59
2023/11/29 01:25:24;;;;;;;5.55;5.00;;;;;;;-4.45;100.00;97434.09;15294533;19;20473;-56
2023/11/29 01:30:48;;;;;;;5.10;4.10;;;;;;;-4.50;100.00;97427.34;15291925;19;20015;-57
2023/11/29 01:36:20;;;;;;;4.57;4.18;;;;;;;-4.56;100.00;97426.84;15296136;19;20043;-60
2023/11/29 01:41:45;;;;;;;4.88;4.40;;;;;;;-4.66;100.00;97421.28;15284803;19;20092;-59
2023/11/29 01:47:14;;;;;;;4.50;4.10;;;;;;;-4.74;100.00;97420.91;15292171;19;20630;-59
2023/11/29 01:52:42;;;;;;;4.95;4.45;;;;;;;-4.85;100.00;97435.53;15286907;19;20489;-59
2023/11/29 01:58:07;;;;;;;5.20;4.70;;;;;;;-4.83;100.00;97415.28;15292680;19;20047;-59
2023/11/29 02:03:38;;;;;;;4.88;4.45;;;;;;;-4.83;100.00;97403.91;15285846;19;20129;-59
2023/11/29 02:09:05;;;;;;;5.03;4.53;;;;;;;-4.88;100.00;97398.91;15287175;19;20098;-58
2023/11/29 02:14:30;;;;;;;4.60;4.20;;;;;;;-4.89;100.00;97381.47;15284761;19;20010;-56
2023/11/29 02:19:55;;;;;;;4.60;4.20;;;;;;;-4.90;100.00;97379.78;15285504;19;20527;-59
2023/11/29 02:25:23;;;;;;;3.83;3.53;;;;;;;-4.93;100.00;97366.81;15292383;19;20015;-55
2023/11/29 02:30:47;;;;;;;4.18;3.78;;;;;;;-4.96;100.00;97359.13;15288351;19;20029;-60
2023/11/29 02:36:13;;;;;;;3.80;3.40;;;;;;;-5.01;100.00;97359.41;15291739;19;20015;-57
2023/11/29 02:41:41;;;;;;;2.60;2.40;;;;;;;-5.03;100.00;97353.38;15287306;19;20023;-62
2023/11/29 02:47:06;;;;;;;2.72;2.53;;;;;;;-5.03;100.00;97350.75;15287057;19;20014;-57
2023/11/29 02:52:32;;;;;;;3.92;2.65;;;;;;;-5.06;100.00;97350.09;15287868;19;20015;-58
2023/11/29 02:58:00;;;;;;;3.10;2.60;;;;;;;-5.09;100.00;97345.03;15289728;19;20362;-59
2023/11/29 03:03:25;;;;;;;3.00;2.70;;;;;;;-5.18;100.00;97328.03;15302991;19;20007;-62
2023/11/29 03:08:50;;;;;;;3.08;2.50;;;;;;;-5.19;100.00;97326.31;15282856;19;20093;-59
2023/11/29 03:14:17;;;;;;;3.08;2.65;;;;;;;-5.23;100.00;97311.72;15285975;19;20081;-62
2023/11/29 03:19:42;;;;;;;2.42;2.20;;;;;;;-5.30;100.00;97312.06;15279531;19;20015;-60
2023/11/29 03:25:07;;;;;;;2.60;2.40;;;;;;;-5.38;100.00;97308.19;15287533;19;20025;-61
2023/11/29 03:30:35;;;;;;;2.20;2.00;;;;;;;-5.41;100.00;97303.97;15284281;19;20023;-61
2023/11/29 03:35:59;;;;;;;2.30;2.13;;;;;;;-5.45;100.00;97291.94;15284816;19;20370;-57
2023/11/29 03:41:24;;;;;;;2.80;2.20;;;;;;;-5.45;100.00;97282.31;15277337;19;20018;-61
2023/11/29 03:46:52;;;;;;;2.40;2.20;;;;;;;-5.44;100.00;97277.88;15289272;19;20365;-61
2023/11/29 03:52:19;;;;;;;2.30;2.10;;;;;;;-5.49;100.00;97278.16;15284047;19;20010;-55
2023/11/29 03:57:45;;;;;;;2.60;2.30;;;;;;;-5.64;100.00;97266.78;15297888;19;20026;-58
2023/11/29 04:03:20;;;;;;;2.60;2.40;;;;;;;-5.74;100.00;97260.38;15290462;19;20003;-61
2023/11/29 04:08:45;;;;;;;2.97;2.40;;;;;;;-5.82;100.00;97252.13;15296605;19;20104;-62
2023/11/29 04:14:11;;;;;;;2.60;2.40;;;;;;;-5.84;100.00;97241.69;15299001;19;20018;-59
2023/11/29 04:19:40;;;;;;;3.10;2.80;;;;;;;-5.82;100.00;97234.59;15295342;19;20015;-61
2023/11/29 04:25:05;;;;;;;4.10;2.72;;;;;;;-5.79;100.00;97231.78;15293226;19;21017;-59
2023/11/29 04:30:29;;;;;;;2.90;2.70;;;;;;;-5.80;100.00;97219.63;15291532;19;20471;-61
2023/11/29 04:35:57;;;;;;;3.03;2.72;;;;;;;-5.78;100.00;97212.50;15294749;19;20022;-62
2023/11/29 04:41:22;;;;;;;3.28;2.97;;;;;;;-5.69;100.00;97211.09;15285925;19;20033;-60
2023/11/29 04:46:48;;;;;;;3.00;2.70;;;;;;;-5.64;100.00;97198.56;15297562;19;20007;-60
2023/11/29 04:52:15;;;;;;;2.78;2.58;;;;;;;-5.51;100.00;97176.84;15290954;19;20027;-62
2023/11/29 04:57:40;;;;;;;2.97;2.70;;;;;;;-5.40;100.00;97187.53;15291097;19;20369;-61
2023/11/29 05:03:11;;;;;;;2.70;2.50;;;;;;;-5.21;100.00;97181.16;15289252;19;20015;-60
2023/11/29 05:08:38;;;;;;;3.50;2.95;;;;;;;-5.08;100.00;97178.66;15295689;19;20374;-62
2023/11/29 05:14:03;;;;;;;3.15;2.85;;;;;;;-4.96;100.00;97165.59;15296157;19;20028;-59
2023/11/29 05:19:30;;;;;;;3.05;2.75;;;;;;;-4.87;100.00;97171.19;15291209;19;20618;-61
2023/11/29 05:24:58;;;;;;;3.17;2.88;;;;;;;-4.83;100.00;97154.31;15295155;19;20029;-61
2023/11/29 05:30:22;;;;;;;3.40;3.10;;;;;;;-4.80;100.00;97151.50;15287294;19;20018;-60
2023/11/29 05:35:47;;;;;;;3.50;3.05;;;;;;;-4.73;100.00;97163.31;15296400;19;20033;-59
2023/11/29 05:41:15;;;;;;;3.55;3.25;;;;;;;-4.60;100.00;97165.16;15291906;19;20479;-57
2023/11/29 05:46:40;;;;;;;3.28;2.97;;;;;;;-4.49;100.00;97160.03;15295966;19;20515;-57
2023/11/29 05:52:06;;;;;;;3.40;3.10;;;;;;;-4.40;100.00;97156.81;15286502;19;20018;-61
2023/11/29 05:57:34;;;;;;;4.03;3.40;;;;;;;-4.33;100.00;97159.91;15295368;19;20022;-59
2023/11/29 06:03:07;;;;;;;3.60;3.30;;;;;;;-4.31;100.00;97158.03;15285947;19;20039;-59
2023/11/29 06:08:32;;;;;;;3.70;3.40;;;;;;;-4.29;100.00;97161.41;15291520;19;20019;-60
2023/11/29 06:14:00;;;;;;;4.25;3.75;;;;;;;-4.26;100.00;97158.56;15289347;19;20006;-56
2023/11/29 06:19:24;;;;;;;3.97;3.67;;;;;;;-4.17;100.00;97154.47;15289068;19;20373;-59
2023/11/29 06:24:51;;;;;;;3.78;3.47;;;;;;;-4.11;100.00;97151.47;15290217;19;20106;-60
2023/11/29 06:30:20;;;;;;;3.50;3.20;;;;;;;-4.02;100.00;97150.84;15289483;19;20006;-57
2023/11/29 06:35:44;;;;;;;4.35;3.95;;;;;;;-4.03;100.00;97146.53;15287023;19;20029;-59
2023/11/29 06:41:08;;;;;;;4.40;4.00;;;;;;;-4.09;100.00;97141.69;15286854;19;20649;-59
2023/11/29 06:46:37;;;;;;;4.72;4.28;;;;;;;-4.13;100.00;97139.38;15288961;19;20416;-59
2023/11/29 06:52:03;;;;;;;4.30;3.90;;;;;;;-4.17;100.00;97133.44;15283201;19;20019;-60
2023/11/29 06:57:28;;;;;;;4.45;4.05;;;;;;;-4.15;100.00;97131.56;15289298;19;20018;-59
2023/11/29 07:03:02;;;;;;;5.07;4.45;;;;;;;-4.08;100.00;97142.50;15285878;19;20019;-59
2023/11/29 07:08:27;;;;;;;5.15;4.30;;;;;;;-3.97;100.00;97147.91;15283042;19;20371;-59
2023/11/29 07:13:53;;;;;;;5.07;4.68;;;;;;;-3.84;100.00;97149.72;15284227;19;20021;-58
2023/11/29 07:19:22;;;;;;;4.75;4.35;;;;;;;-3.77;100.00;97162.38;15286391;19;20018;-59
2023/11/29 07:24:46;;;;;;;5.18;4.68;;;;;;;-3.68;100.00;97158.28;15285042;19;20018;-59
2023/11/29 07:30:12;;;;;;;4.43;4.00;;;;;;;-3.58;100.00;97163.75;15282885;19;20094;-60
2023/11/29 07:35:40;;;;;;;4.65;4.20;;;;;;;-3.48;100.00;97167.47;15284299;19;20029;-57
2023/11/29 07:41:05;;;;;;;4.07;3.70;;;;;;;-3.41;100.00;97168.72;15276495;19;20014;-58
2023/11/29 07:46:30;;;;;;;4.88;4.47;;;;;;;-3.35;100.00;97159.56;15285824;19;20411;-58
2023/11/29 07:51:57;;;;;;;5.18;4.30;;;;;;;-3.32;100.00;97161.13;15282063;19;20022;-59
2023/11/29 07:57:22;;;;;;;5.05;4.55;;;;;;;-3.32;100.00;97155.88;15287386;19;20380;-57
2023/11/29 08:02:47;;;;;;;5.10;4.38;;;;;;;-3.27;100.00;97149.31;15281716;19;20028;-55
2023/11/29 08:08:16;;;;;;;4.90;4.40;;;;;;;-3.17;100.00;97143.41;15285804;19;20472;-58
2023/11/29 08:13:41;;;;;;;4.63;4.22;;;;;;;-3.13;100.00;97151.03;15279433;19;20011;-58
2023/11/29 08:19:06;;;;;;;4.50;4.10;;;;;;;-3.15;100.00;97146.78;15283362;19;20018;-60
2023/11/29 08:24:35;;;;;;;4.60;4.20;;;;;;;-3.17;100.00;97136.38;15284644;19;20065;-57
2023/11/29 08:29:59;;;;;;;4.75;4.35;;;;;;;-3.12;100.00;97134.25;15266431;19;20025;-49
2023/11/29 08:35:23;;;;;;;4.47;4.07;;;;;;;-3.01;100.00;97132.66;15288283;19;20104;-48
2023/11/29 08:40:51;;;;;;;4.60;4.20;;;;;;;-2.91;100.00;97135.47;15295602;19;20081;-51
2023/11/29 08:46:16;;;;;;;4.95;4.45;;;;;;;-2.74;100.00;97139.53;15298619;19;20479;-48
2023/11/29 08:51:41;;;;;;;5.28;4.78;;;;;;;-2.59;100.00;97145.53;15294910;19;20510;-49
2023/11/29 08:57:08;;;;;;;4.80;4.40;;;;;;;-2.38;100.00;97133.41;15300067;19;20346;-50
2023/11/29 09:02:33;;;;;;;4.72;4.32;;;;;;;-2.17;100.00;97140.69;15291309;19;20041;-47
2023/11/29 09:07:58;;;;;;;5.28;4.78;;;;;;;-2.07;100.00;97138.25;15298319;19;20011;-50
2023/11/29 09:13:25;;;;;;;5.50;4.97;;;;;;;-2.02;100.00;97130.81;15291487;19;20017;-48
2023/11/29 09:18:51;;;;;;;5.88;5.07;;;;;;;-1.99;100.00;97135.00;15298525;19;20013;-48
2023/11/29 09:24:16;;;;;;;5.68;5.18;;;;;;;-1.97;100.00;97139.22;15296797;19;20018;-49
2023/11/29 09:29:43;;;;;;;6.45;5.50;;;;;;;-1.97;100.00;97133.97;15294514;19;20025;-47
2023/11/29 09:35:08;;;;;;;7.03;6.38;;;;;;;-1.87;100.00;97116.47;15298144;19;20027;-48
2023/11/29 09:40:33;;;;;;;6.63;5.80;;;;;;;-1.63;100.00;97109.44;15292252;19;20038;-47
2023/11/29 09:46:00;;;;;;;6.07;5.50;;;;;;;-1.48;100.00;97115.34;15289447;19;20846;-48
2023/11/29 09:51:25;;;;;;;6.07;5.47;;;;;;;-1.33;100.00;97137.91;15292381;19;20070;-48
2023/11/29 09:56:50;;;;;;;6.65;6.00;;;;;;;-1.14;100.00;97102.97;15296308;19;20010;-48
2023/11/29 10:02:22;;;;;;;6.47;5.88;;;;;;;-0.95;100.00;97089.16;15289458;19;20359;-48
2023/11/29 10:07:46;;;;;;;5.75;5.25;;;;;;;-0.76;100.00;97087.66;15296117;19;20039;-49
2023/11/29 10:13:10;;;;;;;6.28;5.50;;;;;;;-0.66;100.00;97098.38;15292192;19;20022;-50
2023/11/29 10:18:38;;;;;;;6.50;5.90;;;;;;;-0.58;100.00;97090.63;15292027;19;20025;-48
2023/11/29 10:24:03;;;;;;;7.00;6.30;;;;;;;-0.30;100.00;97079.63;15290727;19;20090;-51
2023/11/29 10:29:36;;;;;;;5.80;5.30;;;;;;;-0.10;100.00;97072.66;15291362;19;20014;-50
2023/11/29 10:35:05;;;;;;;6.35;5.85;;;;;;;0.10;100.00;97052.47;15293102;19;20018;-49
2023/11/29 10:40:31;;;;;;;5.28;4.80;;;;;;;0.13;100.00;97060.16;15282471;19;20418;-49
2023/11/29 10:46:07;;;;;;;6.13;5.53;;;;;;;0.02;100.00;97073.47;15291101;19;20025;-49
2023/11/29 10:51:35;;;;;;;6.07;5.47;;;;;;;-0.10;100.00;97064.72;15278940;19;20426;-49
2023/11/29 10:57:01;;;;;;;6.55;5.95;;;;;;;-0.12;100.00;97070.16;15289344;19;20024;-48
2023/11/29 11:02:25;;;;;;;6.40;5.72;;;;;;;-0.12;100.00;97074.63;15285841;19;20236;-51
2023/11/29 11:07:53;;;;;;;6.32;5.45;;;;;;;-0.11;100.00;97055.09;15291294;19;20841;-49
2023/11/29 11:13:43;;;;;;;5.97;5.28;;;;;;;-0.06;100.00;97043.16;15289575;19;20487;-48
2023/11/29 11:19:08;;;;;;;6.43;5.82;;;;;;;0.03;100.00;97035.44;15288546;19;20135;-50
2023/11/29 11:25:03;;;;;;;6.38;5.78;;;;;;;0.06;100.00;97040.47;15284526;19;20014;-52
2023/11/29 11:30:38;;;;;;;6.43;5.82;;;;;;;0.09;100.00;97029.59;15284647;19;20028;-53
2023/11/29 11:36:05;;;;;;;6.05;5.47;;;;;;;0.13;100.00;97036.34;15289257;19;20018;-52
2023/11/29 11:41:29;;;;;;;6.20;5.60;;;;;;;0.15;100.00;97031.75;15283971;19;20023;-53
2023/11/29 11:46:57;;;;;;;6.50;5.90;;;;;;;0.13;100.00;97017.78;15289443;19;20116;-51
2023/11/29 11:52:22;;;;;;;7.20;6.50;;;;;;;0.14;100.00;97019.47;15282714;19;20054;-55
2023/11/29 11:57:48;;;;;;;7.10;6.40;;;;;;;0.15;100.00;97014.03;15282691;19;20029;-52
2023/11/29 12:03:15;;;;;;;7.70;6.90;;;;;;;0.18;100.00;97014.75;15281814;19;20023;-51
2023/11/29 12:08:40;;;;;;;6.78;6.07;;;;;;;0.23;100.00;96999.31;15287827;19;20539;-52
2023/11/29 12:14:05;;;;;;;6.93;6.32;;;;;;;0.32;100.00;96987.06;15301980;19;20010;-51
2023/11/29 12:19:34;;;;;;;6.28;5.78;;;;;;;0.33;100.00;97000.19;15300301;19;20348;-52
2023/11/29 12:24:59;;;;;;;5.72;5.18;;;;;;;0.37;100.00;96991.00;15296069;19;20362;-51
2023/11/29 12:30:31;;;;;;;5.57;5.07;;;;;;;0.40;100.00;96990.75;15290938;19;20019;-50
2023/11/29 12:35:58;;;;;;;5.60;4.63;;;;;;;0.52;100.00;96980.91;15296470;19;20025;-53
2023/11/29 12:41:24;;;;;;;5.47;4.97;;;;;;;0.71;100.00;96966.03;15294564;19;20014;-52
2023/11/29 12:46:49;;;;;;;4.32;3.92;;;;;;;0.85;100.00;96963.00;15298242;19;20028;-52
2023/11/29 12:52:23;;;;;;;4.60;4.20;;;;;;;1.11;100.00;96954.53;15291982;19;20077;-50
2023/11/29 12:57:48;;;;;;;4.38;3.97;;;;;;;1.20;100.00;96953.69;15299928;19;20021;-51
2023/11/29 13:03:13;;;;;;;5.00;4.50;;;;;;;1.07;100.00;96956.59;15288603;19;20010;-50
2023/11/29 13:08:40;;;;;;;4.53;4.13;;;;;;;0.81;100.00;96947.50;15301122;19;20022;-54
2023/11/29 13:14:06;;;;;;;4.68;4.25;;;;;;;0.67;100.00;96954.00;15300940;19;20017;-54
2023/11/29 13:19:31;;;;;;;4.60;4.20;;;;;;;0.53;100.00;96961.34;15295640;19;20025;-52
2023/11/29 13:24:59;;;;;;;4.47;4.07;;;;;;;0.46;100.00;96968.19;15290716;19;20414;-50
2023/11/29 13:30:23;;;;;;;4.90;4.50;;;;;;;0.39;100.00;96953.81;15290147;19;20017;-51
2023/11/29 13:35:48;;;;;;;4.70;4.30;;;;;;;0.38;100.00;96954.78;15291700;19;20010;-50
2023/11/29 13:41:15;;;;;;;3.92;3.53;;;;;;;0.36;100.00;96967.31;15290441;19;20024;-52
2023/11/29 13:46:40;;;;;;;3.35;3.05;;;;;;;0.32;100.00;96976.47;15294694;19;20018;-50
2023/11/29 13:52:06;;;;;;;4.63;3.08;;;;;;;0.33;100.00;96976.38;15288029;19;20017;-50
2023/11/29 13:57:44;;;;;;;3.40;2.90;;;;;;;0.33;100.00;96973.72;15294797;19;20021;-54
2023/11/29 14:03:10;;;;;;;3.38;3.08;;;;;;;0.28;100.00;96979.41;15283322;19;21023;-50
2023/11/29 14:08:48;;;;;;;3.30;3.00;;;;;;;0.29;100.00;96977.59;15286136;19;20025;-50
2023/11/29 14:14:18;;;;;;;4.10;3.15;;;;;;;0.23;100.00;96986.91;15283729;19;20024;-52
2023/11/29 14:19:42;;;;;;;3.30;3.00;;;;;;;0.23;100.00;96975.47;15287992;19;20014;-50
2023/11/29 14:25:11;;;;;;;3.60;3.30;;;;;;;0.21;100.00;96974.78;15287048;19;20086;-50
2023/11/29 14:30:39;;;;;;;3.55;3.25;;;;;;;0.19;100.00;96989.94;15284797;19;20018;-50
2023/11/29 14:36:04;;;;;;;3.90;3.60;;;;;;;0.17;100.00;96990.09;15283693;19;20017;-54
2023/11/29 14:41:28;;;;;;;4.10;3.78;;;;;;;0.15;100.00;97000.78;15285813;19;20089;-51
2023/11/29 14:46:56;;;;;;;4.30;3.90;;;;;;;0.14;100.00;97001.75;15289886;19;20343;-51
2023/11/29 14:52:23;;;;;;;4.63;4.22;;;;;;;0.14;100.00;97006.22;15284896;19;20031;-52
2023/11/29 14:57:47;;;;;;;4.60;4.20;;;;;;;0.12;100.00;97021.41;15287077;19;20527;-51
2023/11/29 15:03:15;;;;;;;4.80;4.35;;;;;;;0.12;100.00;97022.22;15284145;19;20035;-51
2023/11/29 15:08:40;;;;;;;4.60;4.20;;;;;;;0.10;100.00;97013.59;15259013;19;20486;-52
2023/11/29 15:14:04;;;;;;;4.88;4.20;;;;;;;0.10;100.00;97020.69;15285976;19;20014;-53
2023/11/29 15:19:31;;;;;;;4.60;4.20;;;;;;;0.10;100.00;97020.69;15287538;19;20038;-52
2023/11/29 15:24:57;;;;;;;4.65;4.25;;;;;;;0.10;100.00;97033.94;15282845;19;20359;-50
2023/11/29 15:30:34;;;;;;;4.40;4.00;;;;;;;0.08;100.00;97022.63;15282821;19;20078;-53
2023/11/29 15:36:02;;;;;;;5.47;4.50;;;;;;;0.07;100.00;97032.41;15288179;19;20680;-52
2023/11/29 15:41:27;;;;;;;5.60;4.10;;;;;;;0.05;100.00;97028.22;15275157;19;20024;-54
2023/11/29 15:46:52;;;;;;;4.57;4.18;;;;;;;0.08;100.00;97043.81;15285335;19;20020;-53
2023/11/29 15:52:19;;;;;;;5.03;4.63;;;;;;;0.10;100.00;97039.22;15280683;19;20590;-52
2023/11/29 15:57:44;;;;;;;4.43;4.03;;;;;;;0.11;100.00;97048.84;15284877;19;20006;-52
2023/11/29 16:03:09;;;;;;;4.63;4.00;;;;;;;0.12;100.00;97067.25;15280402;19;20077;-51
2023/11/29 16:08:36;;;;;;;4.00;3.70;;;;;;;0.14;100.00;97049.44;15287136;19;20018;-52
2023/11/29 16:14:01;;;;;;;3.95;3.65;;;;;;;0.16;100.00;97054.63;15279635;19;20049;-52
2023/11/29 16:19:25;;;;;;;4.63;4.05;;;;;;;0.18;100.00;97057.13;15283193;19;20032;-53
2023/11/29 16:24:52;;;;;;;4.75;4.00;;;;;;;0.18;100.00;97057.94;15275261;19;20415;-51
2023/11/29 16:30:27;;;;;;;4.05;3.75;;;;;;;0.18;100.00;97055.31;15271178;19;20028;-51
2023/11/29 16:35:51;;;;;;;4.47;4.10;;;;;;;0.18;100.00;97071.19;15258505;19;20468;-51
2023/11/29 16:41:19;;;;;;;6.63;3.58;;;;;;;0.22;100.00;97083.22;15274475;19;20018;-52
2023/11/29 16:46:44;;;;;;;4.30;3.90;;;;;;;0.23;100.00;97084.06;15275109;19;20011;-53
2023/11/29 16:52:08;;;;;;;6.00;3.75;;;;;;;0.23;100.00;97092.03;15267059;19;20022;-54
2023/11/29 16:57:35;;;;;;;4.18;3.58;;;;;;;0.21;100.00;97091.31;15287114;19;20361;-55
2023/11/29 17:03:00;;;;;;;3.85;3.55;;;;;;;0.22;100.00;97095.63;15286481;19;20025;-53
2023/11/29 17:08:25;;;;;;;3.30;3.00;;;;;;;0.22;100.00;97093.00;15295466;19;20021;-51
2023/11/29 17:13:52;;;;;;;3.72;3.42;;;;;;;0.23;100.00;97094.66;15292353;19;20007;-53
2023/11/29 17:19:18;;;;;;;3.70;3.40;;;;;;;0.21;100.00;97110.66;15288041;19;20074;-54
2023/11/29 17:24:42;;;;;;;3.90;3.60;;;;;;;0.22;100.00;97116.81;15288227;19;20022;-52
2023/11/29 17:30:11;;;;;;;3.55;3.28;;;;;;;0.21;100.00;97129.22;15291600;19;20022;-52
2023/11/29 17:35:35;;;;;;;3.90;3.58;;;;;;;0.27;100.00;97138.44;15292592;19;20074;-51
2023/11/29 17:41:00;;;;;;;4.35;3.58;;;;;;;0.24;100.00;97138.69;15290132;19;20011;-54
2023/11/29 17:46:27;;;;;;;3.75;3.45;;;;;;;0.21;100.00;97142.44;15288243;19;20016;-50
2023/11/29 17:51:52;;;;;;;4.43;4.03;;;;;;;0.19;100.00;97148.84;15278342;19;20025;-53
2023/11/29 17:57:17;;;;;;;3.97;3.67;;;;;;;0.13;100.00;97152.84;15292217;19;20010;-53
2023/11/29 18:02:44;;;;;;;5.35;4.50;;;;;;;0.07;100.00;97156.84;15286549;19;20074;-52
2023/11/29 18:08:10;;;;;;;5.38;4.05;;;;;;;0.03;100.00;97167.81;15289336;19;20034;-52
2023/11/29 18:13:41;;;;;;;5.20;4.70;;;;;;;-0.04;100.00;97168.31;15288040;19;20026;-53
2023/11/29 18:19:08;;;;;;;4.53;4.13;;;;;;;-0.04;100.00;97175.44;15287867;19;20046;-53
2023/11/29 18:24:33;;;;;;;4.47;3.60;;;;;;;-0.05;100.00;97182.50;15279124;19;20017;-52
2023/11/29 18:29:58;;;;;;;4.00;3.70;;;;;;;-0.07;100.00;97183.59;15287055;19;20025;-55
2023/11/29 18:35:26;;;;;;;4.28;3.97;;;;;;;-0.08;100.00;97195.16;15289797;19;20021;-52
2023/11/29 18:40:53;;;;;;;4.63;4.22;;;;;;;-0.14;100.00;97198.31;15286001;19;20006;-52
2023/11/29 18:46:17;;;;;;;4.45;4.05;;;;;;;-0.15;100.00;97205.41;15284790;19;20015;-52
2023/11/29 18:51:44;;;;;;;4.97;4.32;;;;;;;-0.14;100.00;97208.91;15283583;19;20039;-52
2023/11/29 18:57:09;;;;;;;4.60;4.20;;;;;;;-0.11;100.00;97212.16;15282448;19;20024;-53
2023/11/29 19:02:35;;;;;;;4.28;3.88;;;;;;;-0.08;100.00;97217.19;15281380;19;20033;-51
2023/11/29 19:08:02;;;;;;;4.22;3.83;;;;;;;-0.05;100.00;97214.28;15288017;19;20383;-54
2023/11/29 19:13:27;;;;;;;4.68;4.28;;;;;;;-0.01;100.00;97222.84;15285306;19;20020;-52
2023/11/29 19:18:51;;;;;;;4.40;4.10;;;;;;;-0.03;100.00;97222.94;15285101;19;20021;-50
2023/11/29 19:24:19;;;;;;;4.97;4.47;;;;;;;-0.04;100.00;97220.44;15281984;19;20093;-52
2023/11/29 19:29:44;;;;;;;4.20;3.80;;;;;;;-0.07;100.00;97228.63;15277597;19;20428;-53
2023/11/29 19:35:09;;;;;;;3.88;3.58;;;;;;;-0.08;100.00;97226.94;15285423;19;20025;-54
2023/11/29 19:40:47;;;;;;;4.70;4.35;;;;;;;-0.10;100.00;97242.94;15283392;19;20025;-52
2023/11/29 19:46:12;;;;;;;4.78;4.38;;;;;;;-0.09;100.00;97249.94;15281023;19;20351;-50
2023/11/29 19:57:34;;;;;;;4.68;4.28;;;;;;;-0.02;100.00;97260.88;15283403;19;20010;-50
2023/11/29 20:02:59;;;;;;;5.45;4.95;;;;;;;0.04;100.00;97267.47;15273945;19;20359;-50
2023/11/29 20:08:23;;;;;;;5.30;4.45;;;;;;;0.04;100.00;97259.53;15287113;19;20014;-50
2023/11/29 20:13:50;;;;;;;4.95;4.45;;;;;;;0.07;100.00;97261.91;14770235;19;10001722;-51
2023/11/29 20:19:16;;;;;;;5.25;4.75;;;;;;;0.08;100.00;97263.59;15284502;19;20372;-50
2023/11/29 20:24:40;;;;;;;5.25;4.78;;;;;;;0.09;100.00;97266.13;15281639;19;20019;-54
2023/11/29 20:30:08;;;;;;;6.05;4.90;;;;;;;0.14;100.00;97265.75;15289465;19;20026;-53
2023/11/29 20:35:33;;;;;;;5.88;5.28;;;;;;;0.18;100.00;97271.66;15295584;19;20020;-51
2023/11/29 20:40:58;;;;;;;5.78;5.28;;;;;;;0.14;100.00;97269.25;15296478;19;20423;-52
2023/11/29 20:46:25;;;;;;;5.60;5.07;;;;;;;0.13;100.00;97275.50;15295697;19;20018;-50
2023/11/29 20:51:50;;;;;;;9.23;5.20;;;;;;;0.11;100.00;97276.59;15293379;19;20842;-50
2023/11/29 20:57:16;;;;;;;7.20;4.50;;;;;;;0.11;100.00;97281.91;15299741;19;20014;-52
2023/11/29 21:02:43;;;;;;;5.20;4.57;;;;;;;0.07;100.00;97275.16;15293453;19;20017;-53
2023/11/29 21:08:09;;;;;;;5.55;4.75;;;;;;;0.09;100.00;97259.97;15293330;19;20036;-51
2023/11/29 21:13:33;;;;;;;8.70;7.30;;;;;;;0.08;100.00;97266.25;15297205;19;20025;-53
2023/11/29 21:19:01;;;;;;;21.13;13.25;;;;;;;0.07;100.00;97264.56;15299048;19;20014;-55
2023/11/29 21:24:25;;;;;;;7.57;5.47;;;;;;;0.06;100.00;97268.19;15293920;19;20434;-55
2023/11/29 21:29:50;;;;;;;6.13;5.40;;;;;;;0.03;100.00;97263.16;15294703;19;20424;-53
2023/11/29 21:35:17;;;;;;;8.40;5.97;;;;;;;-0.01;100.00;97250.13;15296302;19;20010;-50
2023/11/29 21:40:42;;;;;;;5.90;5.30;;;;;;;-0.04;100.00;97253.03;15286325;19;20090;-55
2023/11/29 21:46:06;;;;;;;5.60;5.10;;;;;;;-0.04;100.00;97257.50;15296911;19;20039;-54
2023/11/29 21:51:34;;;;;;;6.45;5.18;;;;;;;-0.10;100.00;97257.97;15295372;19;20055;-50
2023/11/29 21:56:58;;;;;;;8.18;5.78;;;;;;;-0.14;100.00;97245.97;15295492;19;20020;-52
2023/11/29 22:02:23;;;;;;;6.57;5.97;;;;;;;-0.17;100.00;97252.31;15289973;19;20014;-52
2023/11/29 22:07:50;;;;;;;6.93;5.50;;;;;;;-0.20;100.00;97252.59;15291073;19;20098;-52
2023/11/29 22:13:16;;;;;;;6.10;5.50;;;;;;;-0.22;100.00;97262.47;15291374;19;20018;-52
2023/11/29 22:18:42;;;;;;;7.05;6.32;;;;;;;-0.23;100.00;97251.00;15291965;19;20021;-49
2023/11/29 22:24:10;;;;;;;7.55;6.72;;;;;;;-0.22;100.00;97255.34;15292426;19;20007;-52
2023/11/29 22:29:35;;;;;;;8.43;7.18;;;;;;;-0.21;100.00;97256.19;15291476;19;20050;-52
2023/11/29 22:35:00;;;;;;;8.00;7.20;;;;;;;-0.19;100.00;97251.63;15287310;19;20017;-50
2023/11/29 22:40:28;;;;;;;8.95;7.60;;;;;;;-0.19;100.00;97243.69;15289817;19;20021;-49
2023/11/29 22:45:53;;;;;;;8.85;7.95;;;;;;;-0.22;100.00;97238.63;15290058;19;20017;-49
2023/11/29 22:51:21;;;;;;;8.90;7.93;;;;;;;-0.23;100.00;97245.72;15288024;19;20022;-51
2023/11/29 22:56:48;;;;;;;9.13;7.88;;;;;;;-0.24;100.00;97251.16;15289695;19;20018;-52
2023/11/29 23:02:13;;;;;;;8.98;8.13;;;;;;;-0.24;100.00;97248.50;15284781;19;20479;-51
2023/11/29 23:07:38;;;;;;;9.57;8.43;;;;;;;-0.24;100.00;97246.72;15288220;19;20023;-52
2023/11/29 23:13:05;;;;;;;8.52;7.57;;;;;;;-0.25;100.00;97262.69;15283020;19;20020;-51
2023/11/29 23:18:30;;;;;;;7.95;7.15;;;;;;;-0.27;100.00;97267.25;15289760;19;20098;-49
2023/11/29 23:23:54;;;;;;;7.93;7.22;;;;;;;-0.28;100.00;97270.88;15287019;19;20017;-50
2023/11/29 23:29:21;;;;;;;8.60;7.43;;;;;;;-0.30;100.00;97265.72;15287112;19;20363;-49
2023/11/29 23:34:54;;;;;;;8.25;7.07;;;;;;;-0.27;100.00;97273.41;15289002;19;20014;-49
2023/11/29 23:40:19;;;;;;;7.90;7.10;;;;;;;-0.24;100.00;97274.97;15287243;19;20029;-49
2023/11/29 23:45:46;;;;;;;7.13;6.43;;;;;;;-0.23;100.00;97268.72;15278911;19;20021;-49
2023/11/29 23:51:12;;;;;;;7.15;6.45;;;;;;;-0.24;100.00;97259.94;15283751;19;20019;-50
2023/11/29 23:56:36;;;;;;;7.32;6.53;;;;;;;-0.22;100.00;97273.03;15287258;19;20109;-52
